Terminal Aerodrome Forecast
Issued by NWS

Home | Current Version | Previous Version | Text Only | Print | Product List | Glossary On
Versions: 1 2 3 4 5 6 7 8 9 10 11 12 13 14 15 16 17 18 19 20 21 22 23 24
000
FTUS45 KABQ 201300 AAA
TAFGUP
TAF AMD
KGUP 201303Z 2013/2112 VRB03KT 2SM BR SCT008
      TEMPO 2013/2015 1/2SM FZFG VV002
     FM201700 24006KT P6SM SCT130
     FM210400 VRB03KT P6SM SCT080=

USA.gov is the U.S. government's official web portal to all federal, state and local government web resources and services.